Time;durP1;ratioP1;P1;durP2;ratioP2;P2;SDS_P1;SDS_P2;PMS_P1;PMS_P2;Temp;Humidity;BMP_temperature;BMP_pressure;BME280_temperature;BME280_humidity;BME280_pressure;Samples;Min_cycle;Max_cycle;Signal;HPM_P1;HPM_P2
2023/03/02 00:08:46;;;;;;;30.33;17.97;;;4.20;65.80;;;;;;20982912;28;20310;-75
2023/03/02 00:18:47;;;;;;;31.80;17.83;;;4.20;66.10;;;;;;20981993;28;20222;-74
2023/03/02 00:28:49;;;;;;;29.43;17.20;;;;;;;;;;20981696;28;20211;-75
2023/03/02 00:38:51;;;;;;;32.37;17.60;;;4.20;66.60;;;;;;20982205;28;20199;-75
2023/03/02 00:48:53;;;;;;;29.30;17.47;;;4.30;66.50;;;;;;21063599;28;20662;-76
2023/03/02 01:03:28;;;;;;;32.20;17.30;;;4.10;66.10;;;;;;20984406;28;20568;-76
2023/03/02 01:13:30;;;;;;;29.97;17.57;;;4.00;66.20;;;;;;20984133;28;20564;-76
2023/03/02 01:23:32;;;;;;;28.60;17.10;;;3.90;66.40;;;;;;20982924;28;20556;-77
2023/03/02 01:33:34;;;;;;;32.83;17.77;;;;;;;;;;20986070;28;20190;-75
2023/03/02 01:43:36;;;;;;;31.17;17.53;;;;;;;;;;21065401;28;20336;-77
2023/03/02 02:02:40;;;;;;;28.90;16.63;;;3.60;67.30;;;;;;20985037;28;20548;-72
2023/03/02 02:12:42;;;;;;;35.97;18.67;;;3.50;68.00;;;;;;20983523;28;20257;-71
2023/03/02 02:23:16;;;;;;;34.10;18.00;;;3.40;68.30;;;;;;20983020;28;20263;-71
2023/03/02 02:33:22;;;;;;;32.57;17.03;;;3.40;68.60;;;;;;20983048;28;20238;-71
2023/03/02 02:43:26;;;;;;;31.57;16.03;;;3.30;68.80;;;;;;21090084;28;20209;-71
2023/03/02 02:53:37;;;;;;;30.77;17.00;;;3.20;69.00;;;;;;21077614;28;20240;-76
2023/03/02 03:03:41;;;;;;;28.20;16.00;;;2.80;69.30;;;;;;21063759;28;20210;-74
2023/03/02 03:13:44;;;;;;;27.43;15.20;;;3.20;70.60;;;;;;21008732;28;20281;-73
2023/03/02 03:23:47;;;;;;;28.13;15.77;;;;;;;;;;21006118;28;20658;-76
2023/03/02 03:33:49;;;;;;;32.40;16.70;;;3.00;69.60;;;;;;20998850;28;20219;-75
2023/03/02 03:43:51;;;;;;;29.60;16.63;;;2.80;69.80;;;;;;20922060;28;20207;-75
2023/03/02 03:53:58;;;;;;;29.23;15.77;;;2.80;70.40;;;;;;20920599;28;20239;-75
2023/03/02 04:04:02;;;;;;;27.57;15.97;;;2.80;70.60;;;;;;20920144;28;20265;-75
2023/03/02 04:14:05;;;;;;;32.30;16.27;;;2.60;70.90;;;;;;20919585;28;20288;-75
2023/03/02 04:24:08;;;;;;;27.50;15.70;;;2.70;71.30;;;;;;20917428;28;20601;-75
2023/03/02 04:34:09;;;;;;;26.07;15.33;;;2.70;71.30;;;;;;20926729;28;20300;-76
2023/03/02 04:44:12;;;;;;;30.13;16.87;;;2.70;71.60;;;;;;21000044;28;20199;-74
2023/03/02 04:54:24;;;;;;;29.23;17.00;;;2.60;72.40;;;;;;20998537;28;20576;-76
2023/03/02 05:04:26;;;;;;;30.90;16.47;;;2.90;73.20;;;;;;20997838;28;20209;-76
2023/03/02 05:14:29;;;;;;;34.67;16.63;;;3.00;74.10;;;;;;20997447;28;20236;-76
2023/03/02 05:24:30;;;;;;;28.90;16.20;;;2.50;73.70;;;;;;20995534;28;20235;-75
2023/03/02 05:34:32;;;;;;;27.73;16.03;;;2.50;74.10;;;;;;20983379;28;20231;-75
2023/03/02 05:44:34;;;;;;;27.63;15.83;;;3.60;75.50;;;;;;20912966;28;20651;-75
2023/03/02 05:54:36;;;;;;;33.43;16.33;;;;;;;;;;20911742;28;20242;-75
2023/03/02 06:04:41;;;;;;;28.33;16.03;;;2.50;75.00;;;;;;20911526;28;20203;-75
2023/03/02 06:14:43;;;;;;;29.13;14.87;;;2.60;75.10;;;;;;20911612;28;20329;-72
2023/03/02 06:24:45;;;;;;;32.77;16.80;;;;;;;;;;20910831;28;20250;-74
2023/03/02 06:34:47;;;;;;;29.93;16.27;;;;;;;;;;20925317;28;20279;-73
2023/03/02 06:44:50;;;;;;;35.43;16.93;;;3.00;75.80;;;;;;21003036;28;20229;-73
2023/03/02 06:54:53;;;;;;;35.13;16.33;;;3.10;75.40;;;;;;21008281;28;20246;-72
2023/03/02 07:04:54;;;;;;;32.30;16.77;;;3.30;75.50;;;;;;21006862;28;20559;-72
2023/03/02 07:14:56;;;;;;;32.57;16.90;;;3.50;75.50;;;;;;21006119;28;20710;-72
2023/03/02 07:24:58;;;;;;;36.60;16.77;;;3.80;75.50;;;;;;21005188;28;20199;-72
2023/03/02 07:34:59;;;;;;;35.23;16.57;;;4.50;75.90;;;;;;20988671;28;20232;-72
2023/03/02 07:45:03;;;;;;;32.63;16.97;;;4.40;75.20;;;;;;20920676;28;20204;-72
2023/03/02 07:55:05;;;;;;;26.67;16.10;;;4.80;74.40;;;;;;20918809;28;20240;-71
2023/03/02 08:05:08;;;;;;;32.20;15.57;;;5.20;74.10;;;;;;20918571;28;20277;-72
2023/03/02 08:18:01;;;;;;;30.53;14.93;;;5.70;72.80;;;;;;20983328;28;20569;-73
2023/03/02 08:28:03;;;;;;;21.70;13.73;;;;;;;;;;20982851;28;20273;-73
2023/03/02 08:38:04;;;;;;;24.60;13.67;;;6.30;71.00;;;;;;21023804;28;20198;-73
2023/03/02 08:48:06;;;;;;;26.53;13.13;;;6.70;70.60;;;;;;21064750;28;20212;-76
2023/03/02 08:58:08;;;;;;;22.60;13.20;;;6.90;69.60;;;;;;21064085;28;20298;-74
2023/03/02 09:08:10;;;;;;;27.67;12.53;;;;;;;;;;21062588;28;20251;-73
2023/03/02 09:18:13;;;;;;;21.67;11.70;;;7.40;68.10;;;;;;21062321;28;20209;-72
2023/03/02 09:28:16;;;;;;;19.37;11.77;;;7.70;67.30;;;;;;21012087;28;20225;-74
2023/03/02 09:38:18;;;;;;;19.73;11.23;;;8.00;66.70;;;;;;20961456;28;20213;-75
2023/03/02 09:48:35;;;;;;;19.90;10.97;;;8.30;66.10;;;;;;20921213;28;20215;-74
2023/03/02 10:00:01;;;;;;;21.20;11.13;;;8.50;65.40;;;;;;21408188;27;20497;-71
2023/03/02 10:10:22;;;;;;;21.90;11.30;;;8.60;65.00;;;;;;21320614;27;20556;-72
2023/03/02 10:20:27;;;;;;;21.73;11.53;;;8.90;64.40;;;;;;21319765;27;20208;-71
2023/03/02 10:30:37;;;;;;;19.07;11.37;;;9.10;64.10;;;;;;21319719;27;20224;-75
2023/03/02 10:40:46;;;;;;;30.37;16.20;;;9.30;63.60;;;;;;21318654;27;20284;-74
2023/03/02 10:50:53;;;;;;;23.57;11.90;;;9.40;62.90;;;;;;21320921;27;20728;-71
2023/03/02 11:00:56;;;;;;;19.37;10.70;;;9.50;62.90;;;;;;21322196;27;20265;-72
2023/03/02 11:11:04;;;;;;;21.10;10.87;;;9.70;62.80;;;;;;21260492;27;20233;-72
2023/03/02 11:21:12;;;;;;;21.87;9.73;;;9.90;62.60;;;;;;21257953;27;20338;-71
2023/03/02 11:31:50;;;;;;;22.50;10.53;;;10.10;61.20;;;;;;21256681;27;20263;-71
2023/03/02 11:41:52;;;;;;;22.93;9.70;;;10.20;60.80;;;;;;21242499;27;20607;-71
2023/03/02 11:51:58;;;;;;;21.53;11.00;;;10.70;60.60;;;;;;21250066;27;20506;-71
2023/03/02 12:02:01;;;;;;;18.80;9.83;;;11.00;59.90;;;;;;21254799;27;20229;-71
2023/03/02 12:12:34;;;;;;;16.60;9.87;;;11.20;59.50;;;;;;21253925;27;20573;-74
2023/03/02 12:22:36;;;;;;;16.63;9.47;;;11.50;59.20;;;;;;21216538;27;20197;-72
2023/03/02 12:32:38;;;;;;;16.93;9.73;;;11.80;58.70;;;;;;21252102;27;20298;-71
2023/03/02 12:42:49;;;;;;;18.93;9.07;;;12.00;58.30;;;;;;21251849;27;20197;-74
2023/03/02 12:53:05;;;;;;;19.77;8.30;;;12.20;57.80;;;;;;21250773;27;20241;-73
2023/03/02 13:03:13;;;;;;;18.57;9.40;;;12.40;57.60;;;;;;21249940;27;20213;-73
2023/03/02 13:13:40;;;;;;;18.20;9.70;;;12.50;57.00;;;;;;21249716;27;20582;-72
2023/03/02 13:23:50;;;;;;;30.47;16.23;;;12.60;56.60;;;;;;21239327;27;20216;-73
2023/03/02 13:33:54;;;;;;;53.97;31.40;;;12.80;56.50;;;;;;21247159;27;20232;-72
2023/03/02 13:43:57;;;;;;;22.57;9.10;;;13.00;56.40;;;;;;21247597;27;20231;-72
2023/03/02 13:54:05;;;;;;;48.37;22.37;;;13.40;56.10;;;;;;21247296;27;20240;-72
2023/03/02 14:04:21;;;;;;;20.00;10.50;;;13.60;55.50;;;;;;21228629;28;20273;-72
2023/03/02 14:14:26;;;;;;;86.43;48.07;;;13.70;55.40;;;;;;21246887;28;20316;-74
2023/03/02 14:24:27;;;;;;;20.63;10.93;;;14.40;54.60;;;;;;21244533;28;20203;-75
2023/03/02 14:34:29;;;;;;;18.70;8.03;;;15.10;53.10;;;;;;21245953;28;20247;-75
2023/03/02 14:51:22;;;;;;;18.87;7.23;;;15.60;52.00;;;;;;21237586;27;20554;-76
2023/03/02 15:01:23;;;;;;;48.30;32.10;;;18.00;48.50;;;;;;21239760;28;20532;-75
2023/03/02 15:11:26;;;;;;;14.67;6.47;;;19.60;47.40;;;;;;21238750;28;20213;-76
2023/03/02 15:21:28;;;;;;;32.63;8.20;;;21.40;45.00;;;;;;21234742;28;20206;-76
2023/03/02 15:31:31;;;;;;;18.83;8.03;;;21.50;46.70;;;;;;21233722;28;20209;-75
